Date,TemperatureHighF,TemperatureAvgF,TemperatureLowF,DewpointHighF,DewpointAvgF,DewpointLowF,HumidityHigh,HumidityAvg,HumidityLow,PressureMaxIn,PressureMinIn,WindSpeedMaxMPH,WindSpeedAvgMPH,GustSpeedMaxMPH,PrecipitationSumIn
2012-1-1,42,34,27,24,20,14,71,57,41,0.00,40.00,6,1,10,0.00
2012-1-2,35,32,28,25,22,19,74,66,55,0.00,40.00,2,0,11,0.00
2012-1-3,48,38,32,26,22,18,59,52,39,0.00,40.00,3,0,8,0.00
2012-1-4,46,38,33,31,26,22,68,61,52,0.00,40.00,2,0,8,0.00
2012-1-5,46,40,32,29,25,19,62,55,49,0.00,40.00,10,2,16,0.00
2012-1-6,34,31,26,20,16,14,62,56,48,0.00,40.00,2,0,8,0.00
2012-1-7,40,32,28,22,18,16,75,57,44,0.00,40.00,8,2,17,0.00
2012-1-8,40,33,30,22,19,17,66,56,45,0.00,40.00,1,0,8,0.00
2012-1-9,40,33,28,26,22,20,79,64,53,0.00,40.00,6,1,12,0.00
2012-1-10,37,31,27,30,25,15,100,78,57,0.00,40.00,7,2,12,0.01
2012-1-11,39,27,21,15,13,10,72,57,33,0.00,40.00,5,2,13,0.01
2012-1-12,34,26,19,16,11,5,65,55,41,0.00,40.00,3,0,8,0.00
2012-1-13,37,28,22,19,16,12,71,60,47,0.00,40.00,3,0,9,0.00
2012-1-14,32,28,26,17,15,10,67,58,40,0.00,40.00,6,1,11,0.00
2012-1-15,32,28,20,20,15,5,71,58,32,0.00,40.00,15,2,21,0.00
2012-1-16,25,21,16,12,9,5,75,60,47,0.00,40.00,9,3,17,0.00
2012-1-17,30,22,18,19,14,5,93,73,46,0.00,40.00,18,6,40,0.00
2012-1-18,33,31,28,33,25,10,100,83,43,0.00,40.00,17,9,30,0.00
2012-1-19,58,33,32,55,33,32,100,100,90,0.00,40.00,11,7,22,0.14
2012-1-20,70,37,35,69,36,33,100,94,80,0.00,40.00,11,3,18,1.20
2012-1-21,40,37,31,40,34,20,100,91,63,0.00,40.00,9,3,24,1.10
2012-1-22,37,29,25,30,22,17,100,77,48,0.00,40.00,4,1,9,0.02
2012-1-23,47,33,27,33,29,23,100,87,45,0.00,40.00,5,1,10,0.01
2012-1-24,31,27,20,30,22,15,100,83,61,0.00,40.00,6,2,16,0.01
2012-1-25,44,35,30,38,34,30,100,97,63,0.00,40.00,13,4,23,0.59
2012-1-26,40,34,28,37,31,16,100,90,56,0.00,40.00,10,4,23,0.54
2012-1-27,42,28,20,19,15,10,67,59,36,0.00,40.00,9,3,13,0.01
2012-1-28,39,26,18,19,14,9,71,61,42,0.00,40.00,5,1,8,0.00
2012-1-29,44,32,26,22,18,13,70,56,34,0.00,40.00,6,1,11,0.00
2012-1-30,51,34,30,33,29,17,100,84,43,0.00,40.00,6,2,21,0.12
2012-1-31,47,34,27,28,24,21,90,69,45,0.00,40.00,9,3,13,0.08
2012-2-1,34,32,31,34,28,22,100,86,64,0.00,40.00,9,3,19,0.01
2012-2-2,47,34,29,27,22,17,80,63,34,0.00,40.00,8,3,17,0.09
2012-2-3,46,32,27,22,19,15,76,60,35,0.00,40.00,8,2,17,0.01
2012-2-4,49,35,26,20,17,15,63,50,30,0.00,40.00,1,0,8,0.01
2012-2-5,56,35,28,23,17,15,62,49,25,0.00,40.00,5,0,11,0.00
2012-2-6,46,33,24,19,17,12,64,53,32,0.00,40.00,3,1,10,0.00
2012-2-7,47,34,27,18,15,10,59,47,28,0.00,40.00,5,0,9,0.00
2012-2-8,36,34,30,31,24,13,90,70,40,0.00,40.00,5,1,9,0.02
2012-2-9,44,36,33,38,34,28,100,91,70,0.00,40.00,0,0,6,0.03
2012-2-10,51,37,34,38,35,33,100,93,58,0.00,40.00,4,0,9,0.02
2012-2-11,46,38,33,39,36,32,100,92,75,0.00,40.00,2,0,6,0.03
2012-2-12,51,37,32,34,30,27,94,77,43,0.00,40.00,5,2,13,0.01
2012-2-13,53,36,30,30,26,22,94,70,38,0.00,40.00,8,1,17,0.01
2012-2-14,44,34,31,26,22,20,79,62,43,0.00,40.00,7,2,11,0.00
2012-2-15,43,32,27,25,18,14,80,58,35,0.00,40.00,19,4,28,0.00
2012-2-16,37,30,23,23,17,11,68,58,41,0.00,40.00,9,2,14,0.00
2012-2-17,47,36,31,27,24,22,71,62,40,0.00,40.00,7,2,13,0.00
2012-2-18,41,36,28,33,23,11,95,61,31,0.00,40.00,9,3,22,0.01
2012-2-19,38,30,23,21,18,16,73,61,50,0.00,40.00,4,1,11,0.01
2012-2-20,33,29,27,30,21,13,100,73,52,0.00,40.00,4,2,9,0.00
2012-2-21,37,32,29,37,32,29,100,100,100,0.00,40.00,6,2,12,0.01
2012-2-22,50,39,32,40,32,14,100,79,41,0.00,40.00,22,8,42,0.63
2012-2-23,38,33,28,25,20,16,81,60,41,0.00,40.00,7,2,16,0.01
2012-2-24,46,34,24,24,19,15,67,53,39,0.00,40.00,8,3,16,0.00
2012-2-25,41,33,27,29,18,8,84,56,35,0.00,40.00,14,6,33,0.00
2012-2-26,32,28,25,18,15,10,69,59,48,0.00,40.00,13,6,21,0.00
2012-2-27,43,30,21,14,10,9,60,45,26,0.00,40.00,7,3,19,0.00
2012-2-28,37,29,20,24,15,13,75,56,41,0.00,40.00,11,4,19,0.00
2012-2-29,34,31,27,32,25,15,100,81,48,0.00,40.00,17,9,27,0.00
2012-3-1,36,29,25,32,22,14,100,77,47,0.00,40.00,15,5,25,0.00
2012-3-2,40,28,20,26,22,19,100,78,52,0.00,40.00,5,1,11,0.00
2012-3-3,47,34,30,34,28,22,99,76,48,0.00,40.00,5,1,8,0.23
2012-3-4,53,41,32,36,33,31,100,76,45,0.00,40.00,7,2,11,0.18
2012-3-5,49,42,35,32,30,26,76,62,50,0.00,40.00,15,5,32,0.02
2012-3-6,41,30,24,29,13,4,76,49,26,0.00,40.00,19,7,41,0.00
2012-3-7,44,31,20,17,10,4,53,42,28,0.00,40.00,9,3,18,0.00
2012-3-8,50,39,31,27,21,15,55,48,37,0.00,40.00,7,4,15,0.00
2012-3-9,56,47,34,28,24,19,54,41,29,0.00,40.00,8,3,14,0.00
2012-3-10,58,49,37,30,23,-100,52,39,32,0.00,40.00,12,4,18,0.00
2012-3-11,50,43,36,32,26,17,74,52,30,0.00,40.00,24,7,43,0.01
2012-3-12,47,36,31,36,29,21,100,78,51,0.00,40.00,11,3,20,0.11
2012-3-13,49,41,32,36,29,24,97,64,47,0.00,40.00,26,13,50,0.10
2012-3-14,38,34,32,38,33,26,100,96,75,0.00,40.00,5,1,8,0.33
2012-3-15,47,41,36,47,41,36,100,100,93,0.00,40.00,14,3,30,1.30
2012-3-16,45,41,37,45,39,35,100,94,78,0.00,40.00,18,8,30,0.93
2012-3-17,41,38,33,40,31,22,100,78,53,0.00,40.00,15,6,23,0.40
2012-3-18,35,33,31,34,30,24,100,88,66,0.00,40.00,4,1,10,0.15
2012-3-19,37,31,25,26,20,14,86,66,45,0.00,40.00,11,2,17,0.04
2012-3-20,34,30,27,34,25,-100,100,86,50,0.00,40.00,10,4,15,0.01
2012-3-21,50,41,33,39,36,33,100,86,61,0.00,40.00,10,3,16,0.54
2012-3-22,52,46,38,37,33,-100,83,62,49,0.00,40.00,11,-6,18,0.01
2012-3-23,49,40,34,39,32,25,99,77,52,0.00,40.00,11,4,21,0.02
2012-3-24,58,46,37,30,27,22,71,51,26,0.00,40.00,8,4,20,0.02
2012-3-25,64,52,41,45,34,27,95,51,33,0.00,40.00,11,5,24,0.05
2012-3-26,46,40,36,46,38,30,100,92,73,0.00,40.00,11,3,27,0.68
2012-3-27,51,43,34,34,30,26,74,61,47,0.00,40.00,10,3,18,0.09
2012-3-28,48,41,36,43,38,31,100,88,51,0.00,40.00,14,6,27,0.43
2012-3-29,43,38,33,43,36,29,100,93,78,0.00,40.00,16,5,29,0.47
2012-3-30,51,46,42,50,45,41,100,98,89,0.00,40.00,14,8,26,0.49
2012-3-31,62,53,45,50,42,27,100,72,33,0.00,40.00,22,7,49,0.04
2012-4-1,46,40,32,35,24,15,97,53,35,0.00,40.00,15,8,29,0.01
2012-4-2,53,39,29,23,19,15,63,45,30,0.00,40.00,5,3,16,0.00
2012-4-3,54,44,32,28,23,18,55,43,34,0.00,40.00,8,3,16,0.00
2012-4-4,49,38,32,36,30,22,100,76,37,0.00,40.00,16,6,28,0.31
2012-4-5,42,34,29,28,25,22,92,70,50,0.00,40.00,9,4,17,0.01
2012-4-6,43,34,29,24,21,17,68,57,34,0.00,40.00,13,3,20,0.01
2012-4-7,52,40,28,24,20,17,69,47,29,0.00,40.00,7,2,15,0.00
2012-4-8,66,51,40,25,21,7,48,32,13,0.00,40.00,6,4,19,0.00
2012-4-9,67,56,47,31,20,14,38,25,17,0.00,40.00,6,3,14,0.00
2012-4-10,69,61,50,29,24,16,36,24,18,0.00,40.00,7,3,17,0.00
2012-4-11,60,53,44,45,33,23,99,52,25,0.00,40.00,11,6,25,0.06
2012-4-12,52,44,38,44,34,25,100,71,36,0.00,40.00,15,6,28,0.06
2012-4-13,55,46,37,31,28,23,73,50,32,0.00,40.00,9,3,28,0.00
2012-4-14,62,50,42,28,22,-100,52,36,21,0.00,40.00,12,4,27,0.00
2012-4-15,53,46,38,27,23,16,57,40,27,0.00,40.00,12,3,22,0.00
2012-4-16,47,42,37,43,31,20,100,70,39,0.00,40.00,10,2,22,0.18
2012-4-17,56,46,38,44,38,30,100,77,40,0.00,40.00,11,4,22,0.24
2012-4-18,55,46,40,45,40,33,100,81,45,0.00,40.00,12,4,22,0.41
2012-4-19,54,47,40,44,41,38,97,80,63,0.00,40.00,7,3,15,0.04
2012-4-20,66,55,47,51,45,41,91,71,46,0.00,40.00,12,5,21,0.00
2012-4-21,75,62,49,48,42,36,74,52,31,0.00,40.00,9,4,15,0.00
2012-4-22,80,68,53,46,38,29,43,35,23,0.00,40.00,8,3,14,0.00
2012-4-23,81,68,56,47,41,32,47,37,27,0.00,40.00,7,3,17,0.00
2012-4-24,72,64,55,49,46,41,69,54,39,0.00,40.00,12,5,21,0.00
2012-4-25,69,59,52,53,45,39,100,62,36,0.00,40.00,9,4,37,0.25
2012-4-26,53,48,37,53,47,36,100,98,89,0.00,40.00,19,4,40,1.46
2012-4-27,51,41,34,36,30,23,100,68,37,0.00,40.00,10,4,22,0.17
2012-4-28,53,44,35,33,27,-100,65,53,44,0.00,40.00,6,2,14,0.00
2012-4-29,61,51,40,36,32,29,70,51,35,0.00,40.00,8,4,17,0.00
2012-4-30,53,48,43,51,41,31,100,77,48,0.00,40.00,12,4,28,0.31
2012-5-1,54,45,37,43,31,28,92,61,40,0.00,40.00,11,3,28,0.03
2012-5-2,51,42,33,38,30,23,100,66,40,0.00,40.00,11,4,24,0.05
2012-5-3,47,43,40,46,37,24,100,81,45,0.00,40.00,9,4,23,0.43
2012-5-4,50,41,36,42,39,35,100,95,71,0.00,40.00,16,4,30,0.43
2012-5-5,48,39,33,34,29,-100,100,72,45,0.00,40.00,10,3,18,0.01
2012-5-6,59,46,32,29,25,21,68,47,28,0.00,40.00,9,3,20,0.00
2012-5-7,67,53,39,31,27,23,61,40,21,0.00,40.00,9,4,18,0.00
2012-5-8,70,60,48,39,33,23,45,37,31,0.00,40.00,8,4,18,0.00
2012-5-9,70,60,50,45,38,23,50,43,34,0.00,40.00,14,4,25,0.00
2012-5-10,59,49,37,31,19,13,67,33,18,0.00,40.00,12,4,24,0.00
2012-5-11,65,50,34,22,17,14,44,29,16,0.00,40.00,7,3,18,0.00
2012-5-12,71,56,41,29,21,-100,36,27,16,0.00,40.00,6,2,14,0.00
2012-5-13,75,62,49,34,27,19,34,26,16,0.00,40.00,7,3,14,0.00
2012-5-14,83,71,56,40,30,23,30,23,15,0.00,40.00,7,2,12,0.00
2012-5-15,88,72,62,49,38,31,40,30,16,0.00,40.00,7,2,15,0.00
2012-5-16,80,71,61,47,39,26,46,32,17,0.00,40.00,11,5,22,0.00
2012-5-17,61,56,48,37,34,29,52,42,36,0.00,40.00,6,2,19,0.00
2012-5-18,63,53,42,35,25,18,66,36,20,0.00,40.00,9,2,22,0.00
2012-5-19,68,56,42,27,21,-100,40,28,19,0.00,40.00,8,3,17,0.00
2012-5-20,73,63,52,39,33,22,38,32,24,0.00,40.00,11,5,21,0.00
2012-5-21,72,64,55,49,42,37,73,46,34,0.00,40.00,16,5,27,0.06
2012-5-22,61,54,44,52,44,33,99,71,39,0.00,40.00,14,5,26,0.22
2012-5-23,57,47,39,44,36,31,98,69,40,0.00,40.00,13,4,24,0.15
2012-5-24,56,46,39,41,34,30,78,64,44,0.00,40.00,11,3,23,0.04
2012-5-25,56,47,41,39,36,32,81,66,45,0.00,40.00,6,2,16,0.01
2012-5-26,60,49,39,36,33,31,75,56,40,0.00,40.00,16,4,29,0.01
2012-5-27,59,49,42,43,38,34,85,66,52,0.00,40.00,9,3,19,0.01
2012-5-28,67,55,42,43,38,33,85,56,31,0.00,40.00,7,2,20,0.00
2012-5-29,74,62,50,41,37,30,56,41,26,0.00,40.00,11,5,22,0.00
2012-5-30,72,63,52,41,36,31,58,39,24,0.00,40.00,7,3,15,0.00
2012-5-31,76,64,53,46,40,33,56,42,32,0.00,40.00,7,2,15,0.00
2012-6-1,81,70,56,50,44,41,63,42,29,0.00,40.00,8,4,18,0.00
2012-6-2,73,65,57,54,47,-100,65,53,39,0.00,40.00,16,5,29,0.00
2012-6-3,76,64,54,49,45,41,65,52,35,0.00,40.00,12,4,23,0.00
2012-6-4,83,64,47,52,47,41,100,57,27,0.00,40.00,18,5,33,0.15
2012-6-5,53,46,41,50,44,40,100,91,67,0.00,40.00,17,4,34,0.42
2012-6-6,58,47,39,41,32,26,100,62,32,0.00,40.00,14,7,26,0.03
2012-6-7,66,53,42,46,32,25,86,47,29,0.00,40.00,10,3,38,0.02
2012-6-8,64,52,44,46,39,30,97,65,28,0.00,40.00,16,5,28,0.04
2012-6-9,56,47,39,38,33,25,75,60,31,0.00,40.00,14,4,27,0.01
2012-6-10,65,53,43,42,38,35,84,61,41,0.00,40.00,7,2,14,0.00
2012-6-11,72,61,48,42,37,32,76,45,24,0.00,40.00,6,3,14,0.00
2012-6-12,77,66,52,51,38,32,95,36,24,0.00,40.00,22,5,42,0.08
2012-6-13,74,60,48,51,41,25,98,59,20,0.00,40.00,11,5,29,0.08
2012-6-14,78,62,46,38,25,15,51,27,10,0.00,40.00,8,3,18,0.00
2012-6-15,78,66,54,39,34,27,50,33,17,0.00,40.00,12,3,23,0.00
2012-6-16,79,64,50,37,33,-100,56,35,15,0.00,40.00,7,3,13,0.00
2012-6-17,82,72,60,48,39,28,43,31,21,0.00,40.00,19,7,30,0.00
2012-6-18,64,57,47,38,33,28,63,41,28,0.00,40.00,20,6,33,0.00
2012-6-19,63,52,41,36,33,30,68,49,31,0.00,40.00,6,2,16,0.00
2012-6-20,75,62,44,38,34,30,73,40,21,0.00,40.00,8,5,20,0.00
2012-6-21,88,73,53,43,34,27,43,26,14,0.00,40.00,9,3,18,0.00
2012-6-22,85,72,65,46,30,-100,51,24,12,0.00,40.00,14,-46,26,0.00
2012-6-23,77,67,55,47,40,32,67,40,21,0.00,40.00,5,2,11,0.00
2012-6-24,80,68,54,50,41,27,82,44,16,0.00,40.00,5,2,10,0.00
2012-6-25,82,69,56,48,41,29,66,42,16,0.00,40.00,5,2,10,0.00
2012-6-26,65,55,45,46,42,37,92,64,42,0.00,40.00,8,4,16,0.36
2012-6-27,75,60,45,40,34,27,80,46,17,0.00,40.00,4,2,8,0.01
2012-6-28,86,72,57,40,34,28,47,28,13,0.00,40.00,6,3,9,0.00
2012-6-29,79,70,60,49,45,32,57,41,23,0.00,40.00,3,2,6,0.00
2012-6-30,90,77,60,54,44,34,67,35,14,0.00,40.00,5,2,9,0.00
2012-7-1,82,70,63,55,50,43,67,52,26,0.00,40.00,5,2,10,0.00
2012-7-2,86,73,58,53,46,39,82,45,19,0.00,40.00,5,2,10,0.00
2012-7-3,78,70,59,52,40,29,67,36,18,0.00,40.00,8,4,12,0.00
2012-7-4,83,66,50,40,32,20,52,33,10,0.00,40.00,4,2,9,0.00
2012-7-5,86,72,58,44,39,33,49,33,15,0.00,40.00,5,2,10,0.00
2012-7-6,91,76,62,47,43,31,52,34,12,0.00,40.00,4,2,8,0.00
2012-7-7,96,82,66,50,42,33,48,28,11,0.00,40.00,4,2,8,0.00
2012-7-8,100,86,72,51,42,28,36,24,8,0.00,40.00,6,2,13,0.00
2012-7-9,99,86,75,52,44,39,29,23,16,0.00,40.00,7,3,16,0.00
2012-7-10,95,84,72,50,47,43,42,29,18,0.00,40.00,4,2,11,0.00
2012-7-11,99,83,70,56,50,43,54,36,15,0.00,40.00,4,1,8,0.00
2012-7-12,99,85,72,55,48,38,49,31,13,0.00,40.00,4,2,7,0.00
2012-7-13,88,80,73,54,50,47,45,37,28,0.00,40.00,9,3,14,0.00
2012-7-14,88,76,61,56,52,47,82,45,28,0.00,40.00,6,2,15,0.04
2012-7-15,82,69,58,58,52,44,92,61,27,0.00,40.00,5,2,9,0.21
2012-7-16,85,72,63,55,50,44,69,48,25,0.00,40.00,8,2,12,0.03
2012-7-17,90,76,62,52,48,43,62,40,20,0.00,40.00,4,2,9,0.00
2012-7-18,91,79,66,52,46,36,57,35,15,0.00,40.00,5,3,9,0.00
2012-7-19,94,81,70,55,46,32,57,34,12,0.00,40.00,4,2,8,0.00
2012-7-20,90,82,69,54,42,37,58,26,18,0.00,40.00,6,3,12,0.00
2012-7-21,89,76,61,54,45,35,62,38,15,0.00,40.00,5,2,8,0.00
2012-7-22,95,80,65,50,44,34,57,32,12,0.00,40.00,5,2,10,0.00
2012-7-23,86,74,63,49,38,11,51,31,6,0.00,40.00,6,2,11,0.00
2012-7-24,89,72,55,41,34,20,55,30,8,0.00,40.00,5,2,10,0.00
2012-7-25,91,77,62,43,38,31,44,28,13,0.00,40.00,5,2,8,0.00
2012-7-26,95,81,69,47,40,27,40,26,9,0.00,40.00,5,3,10,0.00
2012-7-27,95,83,73,50,44,35,40,28,14,0.00,40.00,5,3,10,0.00
2012-7-28,94,80,67,49,43,33,44,29,13,0.00,40.00,5,2,9,0.00
2012-7-29,96,79,65,44,38,23,38,25,8,0.00,40.00,4,2,9,0.00
2012-7-30,92,80,68,43,40,32,36,25,13,0.00,40.00,6,3,9,0.00
2012-7-31,93,79,65,43,37,27,39,25,10,0.00,40.00,6,2,11,0.00
2012-8-1,87,75,64,41,36,25,38,26,11,0.00,40.00,6,2,10,0.00
2012-8-2,87,79,69,40,33,21,33,20,9,0.00,40.00,7,3,11,0.00
2012-8-3,85,73,59,41,37,30,46,29,16,0.00,40.00,3,2,11,0.00
2012-8-4,89,75,60,36,32,29,34,22,12,0.00,40.00,5,2,11,0.00
2012-8-5,95,82,69,42,33,21,30,20,7,0.00,40.00,4,2,11,0.00
2012-8-6,94,84,75,47,40,32,35,21,14,0.00,40.00,5,2,11,0.00
2012-8-7,98,84,73,46,40,33,35,23,11,0.00,40.00,4,2,8,0.00
2012-8-8,95,86,74,47,40,31,32,21,11,0.00,40.00,4,2,8,0.00
2012-8-9,96,82,68,46,39,31,34,24,11,0.00,40.00,4,2,8,0.00
2012-8-10,92,80,70,40,36,28,28,21,10,0.00,40.00,6,2,12,0.00
2012-8-11,93,78,65,40,33,-100,35,22,11,0.00,40.00,3,2,8,0.00
2012-8-12,95,81,68,39,31,24,28,18,8,0.00,40.00,4,2,8,0.00
2012-8-13,97,85,71,37,29,15,25,15,5,0.00,40.00,7,3,12,0.00
2012-8-14,96,84,69,39,27,12,27,15,5,0.00,40.00,6,3,12,0.00
2012-8-15,94,82,68,45,39,18,35,23,11,0.00,40.00,4,2,11,0.00
2012-8-16,91,78,64,47,42,33,49,30,13,0.00,40.00,4,2,8,0.00
2012-8-17,96,80,65,43,38,25,41,25,9,0.00,40.00,4,2,10,0.00
2012-8-18,94,81,69,36,30,24,24,17,8,0.00,40.00,4,2,8,0.00
2012-8-19,92,81,69,44,36,30,30,21,14,0.00,40.00,8,2,15,0.00
2012-8-20,92,79,67,47,42,39,43,28,17,0.00,40.00,4,2,8,0.00
2012-8-21,88,80,71,45,42,36,37,27,17,0.00,40.00,5,2,9,0.00
2012-8-22,87,75,65,46,38,12,46,30,6,0.00,40.00,6,2,10,0.00
2012-8-23,86,73,60,36,32,24,39,24,12,0.00,40.00,7,3,11,0.00
2012-8-24,79,66,56,32,25,10,35,23,8,0.00,40.00,5,2,10,0.00
2012-8-25,86,69,55,28,23,15,33,21,7,0.00,40.00,4,2,8,0.00
2012-8-26,90,76,65,36,27,22,26,17,11,0.00,40.00,4,2,8,0.00
2012-8-27,87,78,67,49,39,28,52,28,13,0.00,40.00,5,3,10,0.00
2012-8-28,87,76,63,40,30,13,38,22,7,0.00,40.00,5,2,11,0.00
2012-8-29,78,67,56,41,35,15,54,34,11,0.00,40.00,7,3,13,0.00
2012-8-30,84,69,54,37,32,25,51,30,12,0.00,40.00,5,2,8,0.00
2012-8-31,83,73,63,36,30,25,27,21,13,0.00,40.00,6,2,10,0.00
2012-9-1,81,71,61,36,29,-1,36,23,4,0.00,40.00,6,2,11,0.00
2012-9-2,79,65,53,29,21,6,37,22,6,0.00,40.00,6,2,10,0.00
2012-9-3,84,69,55,25,20,16,27,17,9,0.00,40.00,6,2,10,0.00
2012-9-4,83,70,56,33,30,25,36,23,14,0.00,40.00,5,2,10,0.00
2012-9-5,85,71,57,34,31,27,38,25,12,0.00,40.00,4,2,10,0.00
2012-9-6,80,71,59,36,31,28,35,24,15,0.00,40.00,6,3,9,0.00
2012-9-7,84,70,57,39,34,26,47,29,13,0.00,40.00,3,2,7,0.00
2012-9-8,87,75,61,36,29,26,31,20,11,0.00,40.00,4,2,7,0.00
2012-9-9,86,76,66,39,32,27,28,21,14,0.00,40.00,7,3,14,0.00
2012-9-10,74,66,56,36,29,22,45,26,18,0.00,40.00,7,3,11,0.00
2012-9-11,70,57,45,35,24,11,54,32,10,0.00,40.00,6,2,10,0.00
2012-9-12,77,60,44,22,18,12,38,23,9,0.00,40.00,3,2,9,0.00
2012-9-13,79,64,52,24,19,16,26,18,11,0.00,40.00,4,2,7,0.00
2012-9-14,84,71,58,27,20,15,24,15,8,0.00,40.00,5,2,8,0.00
2012-9-15,84,75,62,35,24,14,30,16,11,0.00,40.00,5,3,8,0.00
2012-9-16,81,70,63,37,34,24,38,27,12,0.00,40.00,4,2,9,0.00
2012-9-17,81,69,56,33,29,25,38,24,13,0.00,40.00,4,2,7,0.00
2012-9-18,82,69,59,30,26,22,27,20,11,0.00,40.00,4,2,7,0.00
2012-9-19,87,73,60,27,25,22,26,18,10,0.00,40.00,4,2,8,0.00
2012-9-20,84,73,64,30,27,24,24,18,11,0.00,40.00,5,2,7,0.00
2012-9-21,76,68,58,33,29,27,32,24,18,0.00,40.00,4,1,6,0.00
2012-9-22,77,69,60,34,28,-100,29,23,18,0.00,40.00,4,2,9,0.00
2012-9-23,74,63,53,51,40,32,91,49,21,0.00,40.00,6,2,11,0.11
2012-9-24,73,62,53,50,47,43,88,61,36,0.00,40.00,4,1,8,0.05
2012-9-25,78,67,58,45,43,41,55,42,29,0.00,40.00,4,2,8,0.00
2012-9-26,77,66,56,45,42,37,60,43,26,0.00,40.00,4,2,8,0.00
2012-9-27,79,67,57,40,37,34,49,35,21,0.00,40.00,4,2,7,0.00
2012-9-28,74,67,60,42,36,32,41,32,22,0.00,40.00,3,1,8,0.00
2012-9-29,80,69,59,43,39,36,52,36,21,0.00,40.00,4,2,8,0.00
2012-9-30,80,68,56,42,36,24,57,34,13,0.00,40.00,7,2,12,0.00
2012-10-1,79,67,56,37,34,30,45,31,17,0.00,40.00,5,2,8,0.00
2012-10-2,78,66,55,36,27,11,40,25,10,0.00,40.00,13,4,23,0.00
2012-10-3,64,51,39,18,12,6,33,22,12,0.00,40.00,9,4,19,0.00
2012-10-4,60,48,38,20,18,16,45,32,18,0.00,40.00,12,3,20,0.00
2012-10-5,61,47,36,20,16,10,48,31,14,0.00,40.00,8,3,17,0.00
2012-10-6,60,48,38,18,15,12,44,29,16,0.00,40.00,7,4,18,0.00
2012-10-7,62,52,42,19,14,11,32,22,15,0.00,40.00,9,4,15,0.00
2012-10-8,66,55,42,21,15,13,34,22,13,0.00,40.00,7,3,12,0.00
2012-10-9,73,59,47,28,21,13,31,24,17,0.00,40.00,11,4,22,0.00
2012-10-10,69,60,51,28,26,22,35,27,21,0.00,40.00,8,4,16,0.00
2012-10-11,74,62,51,30,28,26,39,29,17,0.00,40.00,8,4,16,0.00
2012-10-12,73,63,53,29,25,23,35,24,16,0.00,40.00,9,4,17,0.00
2012-10-13,65,56,48,48,42,26,88,61,25,0.00,40.00,9,4,17,0.09
2012-10-14,66,58,50,43,40,38,68,53,41,0.00,40.00,10,4,16,0.03
2012-10-15,60,56,50,51,47,38,97,75,47,0.00,40.00,11,5,21,0.23
2012-10-16,59,53,42,55,38,17,100,63,26,0.00,40.00,17,10,34,0.58
2012-10-17,53,44,37,31,26,22,68,51,36,0.00,40.00,6,3,15,0.02
2012-10-18,59,48,39,32,27,22,61,46,24,0.00,40.00,6,3,13,0.00
2012-10-19,51,49,47,43,34,24,81,58,36,0.00,40.00,9,4,14,0.03
2012-10-20,49,45,39,45,38,26,97,77,52,0.00,40.00,17,5,29,0.05
2012-10-21,51,42,34,29,23,18,73,50,28,0.00,40.00,9,4,16,0.01
2012-10-22,40,36,32,35,27,17,98,73,41,0.00,40.00,9,4,20,0.42
2012-10-23,36,33,30,34,32,28,99,94,87,0.00,40.00,13,5,22,0.34
2012-10-24,39,32,28,33,29,25,98,89,70,0.00,40.00,6,2,14,0.33
2012-10-25,42,34,30,36,32,30,99,92,71,0.00,40.00,4,1,21,0.34
2012-10-26,36,32,28,32,29,25,96,87,76,0.00,40.00,6,2,9,0.02
2012-10-27,38,35,32,36,32,27,99,89,73,0.00,40.00,5,1,9,0.12
2012-10-28,46,41,37,45,40,36,99,97,92,0.00,40.00,7,3,11,0.74
2012-10-29,55,49,45,49,47,44,100,92,79,0.00,40.00,9,4,19,0.29
2012-10-30,59,51,45,47,43,41,89,76,57,0.00,40.00,6,3,13,0.01
2012-10-31,61,55,49,42,37,34,71,52,39,0.00,40.00,9,3,12,0.00
2012-11-1,58,49,45,42,39,33,83,69,38,0.00,40.00,15,6,40,0.09
2012-11-2,54,47,39,41,36,33,85,67,51,0.00,40.00,7,3,12,0.02
2012-11-3,52,48,44,37,34,32,67,59,49,0.00,40.00,6,3,10,0.00
2012-11-4,60,52,46,40,36,34,66,57,41,0.00,40.00,7,3,11,0.00
2012-11-5,61,52,45,43,40,37,76,64,46,0.00,40.00,4,2,10,0.00
2012-11-6,63,54,46,46,43,41,83,69,50,0.00,40.00,4,2,8,0.00
2012-11-7,55,46,36,42,37,30,80,71,59,0.00,40.00,10,3,18,0.00
2012-11-8,42,37,33,39,34,29,97,88,79,0.00,40.00,7,3,28,0.34
2012-11-9,34,31,25,30,27,20,96,86,78,0.00,40.00,6,2,12,0.06
2012-11-10,35,28,22,23,19,15,85,71,46,0.00,40.00,9,3,16,0.01
2012-11-11,30,25,19,19,16,13,79,69,59,0.00,40.00,8,4,15,0.01
2012-11-12,31,29,27,28,22,15,93,77,61,0.00,40.00,5,3,9,0.00
2012-11-13,35,32,30,34,31,28,99,96,91,0.00,40.00,5,2,7,0.06
2012-11-14,40,36,33,35,32,-100,98,89,82,0.00,40.00,7,2,10,0.05
2012-11-15,43,36,31,32,31,28,93,83,66,0.00,40.00,8,4,12,0.00
2012-11-16,47,41,37,37,34,30,83,76,65,0.00,40.00,9,4,14,0.00
2012-11-17,51,44,42,43,39,35,97,83,57,0.00,40.00,9,4,14,0.48
2012-11-18,45,38,35,43,33,27,94,80,61,0.00,40.00,20,7,31,0.47
2012-11-19,48,42,36,41,36,28,93,79,67,0.00,40.00,11,5,19,0.15
2012-11-20,52,49,45,43,39,34,92,68,53,0.00,40.00,14,6,35,0.26
2012-11-21,45,40,34,43,35,25,97,83,52,0.00,40.00,20,6,33,0.90
2012-11-22,41,35,30,26,22,17,72,58,43,0.00,40.00,6,3,10,0.01
2012-11-23,39,35,32,28,25,22,72,66,57,0.00,40.00,7,2,11,0.00
2012-11-24,40,38,35,36,31,23,96,77,53,0.00,40.00,9,2,11,0.17
2012-11-25,42,36,29,36,27,19,96,72,49,0.00,40.00,7,2,16,0.21
2012-11-26,32,29,26,24,20,16,78,70,62,0.00,40.00,9,5,17,0.01
2012-11-27,40,34,30,29,26,23,83,72,62,0.00,40.00,8,2,11,0.00
2012-11-28,39,36,33,35,30,27,96,78,63,0.00,40.00,6,2,13,0.14
2012-11-29,49,42,36,39,37,35,96,82,60,0.00,40.00,7,3,15,0.18
2012-11-30,46,44,42,43,41,37,99,89,73,0.00,40.00,14,6,23,0.88
2012-12-1,45,43,41,42,40,38,97,91,83,0.00,40.00,13,6,22,0.45
2012-12-2,46,43,35,46,38,24,100,85,48,0.00,40.00,18,8,32,1.33
2012-12-3,42,37,33,31,28,27,79,70,60,0.00,40.00,7,4,15,0.10
2012-12-4,43,37,32,43,35,27,100,91,63,0.00,40.00,12,5,23,1.37
2012-12-5,50,43,34,44,39,29,100,87,63,0.00,40.00,16,10,30,0.61
2012-12-6,36,33,30,32,28,24,88,81,69,0.00,40.00,5,2,10,0.01
2012-12-7,33,31,30,28,26,24,92,81,76,0.00,40.00,13,7,23,0.00
2012-12-8,31,27,23,27,22,18,93,82,64,0.00,40.00,8,4,19,0.00
2012-12-9,28,23,16,20,15,11,85,70,52,0.00,40.00,6,4,16,0.07
2012-12-10,34,31,25,29,26,20,90,82,71,0.00,40.00,4,2,8,0.01
2012-12-11,38,34,29,33,29,27,93,82,71,0.00,40.00,7,3,15,0.01
2012-12-12,37,32,29,33,31,27,99,95,81,0.00,40.00,9,3,17,0.12
2012-12-13,40,31,26,28,25,22,93,79,59,0.00,40.00,5,2,14,0.22
2012-12-14,33,31,29,29,28,26,96,89,81,0.00,40.00,3,1,4,0.02
2012-12-15,31,29,27,28,26,22,97,89,73,0.00,40.00,10,4,17,0.02
2012-12-16,29,28,27,29,27,26,98,96,94,0.00,40.00,12,6,20,0.02
2012-12-17,40,34,25,35,26,15,99,77,49,0.00,40.00,16,8,28,0.62
2012-12-18,32,24,18,16,14,11,79,69,51,0.00,40.00,6,3,14,0.02
2012-12-19,28,21,15,16,13,11,82,72,57,0.00,40.00,7,3,10,0.01
2012-12-20,34,30,24,16,12,10,64,48,37,0.00,40.00,12,6,16,0.00
2012-12-21,34,31,28,31,21,11,95,69,41,0.00,40.00,7,3,13,0.02
2012-12-22,41,34,30,32,28,21,99,82,52,0.00,40.00,9,3,22,0.01
2012-12-23,36,31,29,32,29,26,99,91,74,0.00,40.00,10,2,15,0.08
2012-12-24,38,30,26,32,25,22,99,83,62,0.00,40.00,14,3,19,0.23
2012-12-25,30,26,23,23,20,18,94,80,64,0.00,40.00,7,3,11,0.02
2012-12-26,37,27,25,26,24,21,97,89,65,0.00,40.00,2,1,7,0.09
2012-12-27,39,26,23,26,23,21,97,87,60,0.00,40.00,3,1,5,0.20
2012-12-28,33,27,22,23,21,16,95,81,63,0.00,40.00,6,1,9,0.03
2012-12-29,29,22,19,19,17,15,91,82,65,0.00,40.00,5,1,9,0.03
2012-12-30,32,21,16,18,16,14,91,80,55,0.00,40.00,4,1,9,0.08
2012-12-31,26,19,16,17,14,13,90,82,67,0.00,40.00,4,1,6,0.01
2013-1-1,19,16,14,14,12,10,87,83,76,0.00,40.00,3,1,9,0.00